createdAt,value
2022-11-23T00:01:53.319Z,25.60
2022-11-23T00:04:01.601Z,25.60
2022-11-23T00:06:08.731Z,25.60
2022-11-23T00:08:15.503Z,25.60
2022-11-23T00:10:22.686Z,25.70
2022-11-23T00:12:29.455Z,25.70
2022-11-23T00:14:36.586Z,25.70
2022-11-23T00:16:43.307Z,25.70
2022-11-23T00:18:52.844Z,25.70
2022-11-23T00:21:00.178Z,25.70
2022-11-23T00:23:06.848Z,25.70
2022-11-23T00:25:14.056Z,25.80
2022-11-23T00:27:20.957Z,25.80
2022-11-23T00:29:28.495Z,25.90
2022-11-23T00:31:35.325Z,25.90
2022-11-23T00:33:43.117Z,25.90
2022-11-23T00:35:51.628Z,25.90
2022-11-23T00:37:58.760Z,25.90
2022-11-23T00:40:06.351Z,25.90
2022-11-23T00:42:13.330Z,26.00
2022-11-23T00:44:20.097Z,26.00
2022-11-23T00:46:30.710Z,26.00
2022-11-23T00:48:37.788Z,26.00
2022-11-23T00:50:44.722Z,26.00
2022-11-23T00:52:53.126Z,26.10
2022-11-23T00:55:00.460Z,26.10
2022-11-23T00:57:07.118Z,26.10
2022-11-23T00:59:14.263Z,26.20
2022-11-23T01:01:22.113Z,26.20
2022-11-23T01:03:29.238Z,26.20
2022-11-23T01:05:40.669Z,26.30
2022-11-23T01:07:47.707Z,26.30
2022-11-23T01:09:56.354Z,26.30
2022-11-23T01:12:03.447Z,26.40
2022-11-23T01:14:10.624Z,26.40
2022-11-23T01:16:24.105Z,26.50
2022-11-23T01:18:31.645Z,26.50
2022-11-23T01:20:39.392Z,26.50
2022-11-23T01:22:48.109Z,26.60
2022-11-23T01:24:57.490Z,26.60
2022-11-23T01:27:04.057Z,26.60
2022-11-23T01:29:11.956Z,26.60
2022-11-23T01:31:20.930Z,26.60
2022-11-23T01:33:33.079Z,26.70
2022-11-23T01:35:39.392Z,26.70
2022-11-23T01:37:46.469Z,26.70
2022-11-23T01:39:56.313Z,26.70
2022-11-23T01:42:03.292Z,26.80
2022-11-23T01:44:26.298Z,26.80
2022-11-23T01:46:34.753Z,26.90
2022-11-23T01:48:43.423Z,27.00
2022-11-23T01:50:52.855Z,27.00
2022-11-23T01:53:00.803Z,27.00
2022-11-23T01:55:10.040Z,27.00
2022-11-23T01:57:24.127Z,27.10
2022-11-23T01:59:33.692Z,27.10
2022-11-23T02:01:41.103Z,27.10
2022-11-23T02:03:50.126Z,27.10
2022-11-23T02:06:02.891Z,27.10
2022-11-23T02:08:10.328Z,27.10
2022-11-23T02:10:19.863Z,27.10
2022-11-23T02:12:26.740Z,27.10
2022-11-23T02:14:34.175Z,27.10
2022-11-23T02:16:41.871Z,27.10
2022-11-23T02:18:51.103Z,27.20
2022-11-23T02:21:02.070Z,27.20
2022-11-23T02:23:22.616Z,27.20
2022-11-23T02:25:39.988Z,27.30
2022-11-23T02:27:50.186Z,27.40
2022-11-23T02:30:01.006Z,27.50
2022-11-23T02:32:08.699Z,27.60
2022-11-23T02:34:15.726Z,27.70
2022-11-23T02:36:40.174Z,27.80
2022-11-23T02:38:46.985Z,27.80
2022-11-23T02:40:54.524Z,28.00
2022-11-23T02:43:04.010Z,28.00
2022-11-23T02:45:18.980Z,28.10
2022-11-23T02:47:25.795Z,28.20
2022-11-23T02:49:33.028Z,28.30
2022-11-23T02:51:40.109Z,28.40
2022-11-23T02:53:47.241Z,28.40
2022-11-23T02:55:54.114Z,28.50
2022-11-23T02:58:02.889Z,28.60
2022-11-23T03:00:10.834Z,28.70
2022-11-23T03:02:18.118Z,28.70
2022-11-23T03:04:27.930Z,28.80
2022-11-23T03:06:35.705Z,28.80
2022-11-23T03:08:42.632Z,28.90
2022-11-23T03:10:49.916Z,29.00
2022-11-23T03:13:00.476Z,29.20
2022-11-23T03:15:13.392Z,29.30
2022-11-23T03:17:20.779Z,29.40
2022-11-23T03:19:27.806Z,29.40
2022-11-23T03:21:34.630Z,29.40
2022-11-23T03:23:45.550Z,29.50
2022-11-23T03:25:59.748Z,29.50
2022-11-23T03:28:13.275Z,29.50
2022-11-23T03:30:22.306Z,29.50
2022-11-23T03:32:29.688Z,29.60
2022-11-23T03:34:37.074Z,29.60
2022-11-23T03:36:44.565Z,29.60
2022-11-23T03:38:51.540Z,29.60
2022-11-23T03:41:17.870Z,29.60
2022-11-23T03:43:30.070Z,29.70
2022-11-23T03:45:39.044Z,29.90
2022-11-23T03:47:46.943Z,30.10
2022-11-23T03:49:54.071Z,30.20
2022-11-23T03:52:00.743Z,30.20
2022-11-23T03:54:08.334Z,30.20
2022-11-23T03:56:20.028Z,30.10
2022-11-23T03:58:27.255Z,30.00
2022-11-23T04:00:36.158Z,29.90
2022-11-23T04:02:45.561Z,29.70
2022-11-23T04:05:13.168Z,29.70
2022-11-23T04:07:53.630Z,29.70
2022-11-23T04:10:03.579Z,29.70
2022-11-23T04:12:28.985Z,29.80
2022-11-23T04:14:36.063Z,29.80
2022-11-23T04:16:42.685Z,29.80
2022-11-23T04:18:52.219Z,29.80
2022-11-23T04:20:59.093Z,29.80
2022-11-23T04:23:10.384Z,29.90
2022-11-23T04:25:20.117Z,29.90
2022-11-23T04:27:29.657Z,29.90
2022-11-23T04:29:37.906Z,30.00
2022-11-23T04:31:44.986Z,30.00
2022-11-23T04:33:57.597Z,30.10
2022-11-23T04:36:05.390Z,30.10
2022-11-23T04:38:12.112Z,30.20
2022-11-23T04:40:19.192Z,30.20
2022-11-23T04:42:45.931Z,30.20
2022-11-23T04:44:53.830Z,30.20
2022-11-23T04:47:00.755Z,30.30
2022-11-23T04:49:09.473Z,30.30
2022-11-23T04:51:17.426Z,30.40
2022-11-23T04:53:25.882Z,30.40
2022-11-23T04:55:32.809Z,30.50
2022-11-23T04:57:41.837Z,30.50
2022-11-23T04:59:48.861Z,30.50
2022-11-23T05:01:56.914Z,30.40
2022-11-23T05:04:23.431Z,30.40
2022-11-23T05:06:31.041Z,30.50
2022-11-23T05:08:40.372Z,30.50
2022-11-23T05:11:25.493Z,30.50
2022-11-23T05:13:34.568Z,30.50
2022-11-23T05:15:42.778Z,30.50
2022-11-23T05:17:57.727Z,30.50
2022-11-23T05:20:08.555Z,30.60
2022-11-23T05:22:19.578Z,30.60
2022-11-23T05:24:26.861Z,30.70
2022-11-23T05:26:44.895Z,30.80
2022-11-23T05:28:51.772Z,31.00
2022-11-23T05:30:59.158Z,31.10
2022-11-23T05:33:06.555Z,31.20
2022-11-23T05:35:16.695Z,31.20
2022-11-23T05:37:23.417Z,31.20
2022-11-23T05:39:39.815Z,31.10
2022-11-23T05:41:46.594Z,31.00
2022-11-23T05:44:13.275Z,30.90
2022-11-23T05:46:20.199Z,30.90
2022-11-23T05:48:27.432Z,30.90
2022-11-23T05:50:39.735Z,30.90
2022-11-23T05:53:18.762Z,30.90
2022-11-23T05:55:31.066Z,30.70
2022-11-23T05:57:37.939Z,30.70
2022-11-23T05:59:45.990Z,30.60
2022-11-23T06:01:59.522Z,30.50
2022-11-23T06:04:10.709Z,30.50
2022-11-23T06:06:23.253Z,30.40
2022-11-23T06:08:30.232Z,30.40
2022-11-23T06:10:38.794Z,30.40
2022-11-23T06:12:46.696Z,30.50
2022-11-23T06:14:57.049Z,30.60
2022-11-23T06:17:05.458Z,30.60
2022-11-23T06:19:16.598Z,30.60
2022-11-23T06:21:25.813Z,30.70
2022-11-23T06:23:32.691Z,30.70
2022-11-23T06:25:41.305Z,30.80
2022-11-23T06:28:04.766Z,30.90
2022-11-23T06:30:21.164Z,31.00
2022-11-23T06:32:28.344Z,31.00
2022-11-23T06:34:35.629Z,31.10
2022-11-23T06:36:44.193Z,31.10
2022-11-23T06:38:51.425Z,30.60
2022-11-23T06:41:03.420Z,30.10
2022-11-23T06:43:11.319Z,29.60
2022-11-23T06:45:22.236Z,29.20
2022-11-23T06:47:32.491Z,29.00
2022-11-23T06:49:39.365Z,28.70
2022-11-23T06:52:00.524Z,28.50
2022-11-23T06:54:07.706Z,28.40
2022-11-23T06:56:14.887Z,28.20
2022-11-23T06:58:21.765Z,28.20
2022-11-23T07:00:30.381Z,28.20
2022-11-23T07:02:37.160Z,28.10
2022-11-23T07:04:44.333Z,28.00
2022-11-23T07:06:56.378Z,28.00
2022-11-23T07:09:13.901Z,28.10
2022-11-23T07:11:31.937Z,28.20
2022-11-23T07:13:40.040Z,28.30
2022-11-23T07:15:47.069Z,28.30
2022-11-23T07:17:54.300Z,28.30
2022-11-23T07:20:03.582Z,28.50
2022-11-23T07:22:10.711Z,28.50
2022-11-23T07:24:20.762Z,28.50
2022-11-23T07:26:27.737Z,28.60
2022-11-23T07:28:34.563Z,28.60
2022-11-23T07:30:41.897Z,28.50
2022-11-23T07:32:49.640Z,28.50
2022-11-23T07:34:57.180Z,28.50
2022-11-23T07:37:06.156Z,28.50
2022-11-23T07:39:15.382Z,28.30
2022-11-23T07:41:24.409Z,28.20
2022-11-23T07:43:46.595Z,27.90
2022-11-23T07:45:53.876Z,27.70
2022-11-23T07:48:04.794Z,27.50
2022-11-23T07:50:13.520Z,27.10
2022-11-23T07:52:20.284Z,27.10
2022-11-23T07:54:27.262Z,26.90
2022-11-23T07:56:35.776Z,26.90
2022-11-23T07:58:45.721Z,26.80
2022-11-23T08:00:52.550Z,26.80
2022-11-23T08:05:28.877Z,26.70
2022-11-23T08:07:36.160Z,26.60
2022-11-23T08:09:43.696Z,26.50
2022-11-23T08:11:52.568Z,26.50
2022-11-23T08:13:59.239Z,26.60
2022-11-23T08:16:06.570Z,26.70
2022-11-23T08:18:13.855Z,26.80
2022-11-23T08:20:20.986Z,26.90
2022-11-23T08:22:28.270Z,26.90
2022-11-23T08:24:35.752Z,27.10
2022-11-23T08:26:42.888Z,27.20
2022-11-23T08:28:52.374Z,27.30
2022-11-23T08:30:59.044Z,27.40
2022-11-23T08:33:07.515Z,27.30
2022-11-23T08:35:14.587Z,27.40
2022-11-23T08:37:21.512Z,27.40
2022-11-23T08:39:28.236Z,27.50
2022-11-23T08:41:35.310Z,27.60
2022-11-23T08:43:41.979Z,27.60
2022-11-23T08:45:50.800Z,27.60
2022-11-23T08:47:58.035Z,27.70
2022-11-23T08:50:05.215Z,27.60
2022-11-23T08:52:11.985Z,27.60
2022-11-23T08:54:19.219Z,27.60
2022-11-23T08:56:27.379Z,27.60
2022-11-23T08:58:34.759Z,27.50
2022-11-23T09:00:41.841Z,27.50
2022-11-23T09:02:50.764Z,27.40
2022-11-23T09:04:57.583Z,27.40
2022-11-23T09:07:06.956Z,27.40
2022-11-23T09:09:13.739Z,27.40
2022-11-23T09:11:22.252Z,27.40
2022-11-23T09:13:28.975Z,27.50
2022-11-23T09:15:36.000Z,27.50
2022-11-23T09:17:42.774Z,27.60
2022-11-23T09:19:53.129Z,27.60
2022-11-23T09:22:00.619Z,27.70
2022-11-23T09:24:08.480Z,27.70
2022-11-23T09:26:15.288Z,27.80
2022-11-23T09:28:22.473Z,27.80
2022-11-23T09:30:29.606Z,27.70
2022-11-23T09:32:37.142Z,27.70
2022-11-23T09:34:44.783Z,27.70
2022-11-23T09:36:53.347Z,27.70
2022-11-23T09:39:00.633Z,27.60
2022-11-23T09:41:23.478Z,27.60
2022-11-23T09:43:44.382Z,27.60
2022-11-23T09:45:53.357Z,27.50
2022-11-23T09:48:23.732Z,27.50
2022-11-23T09:50:33.374Z,27.40
2022-11-23T09:52:45.930Z,27.40
2022-11-23T09:54:58.589Z,27.40
2022-11-23T09:57:07.770Z,27.30
2022-11-23T09:59:21.349Z,27.30
2022-11-23T10:01:29.581Z,27.30
2022-11-23T10:03:45.344Z,27.20
2022-11-23T10:06:03.680Z,27.20
2022-11-23T10:08:22.641Z,27.20
2022-11-23T10:10:42.981Z,27.20
2022-11-23T10:12:57.484Z,27.10
2022-11-23T10:15:13.829Z,27.10
2022-11-23T10:17:29.867Z,27.10
2022-11-23T10:19:53.131Z,27.10
2022-11-23T10:22:10.599Z,27.00
2022-11-23T10:24:25.973Z,27.00
2022-11-23T10:26:36.170Z,27.00
2022-11-23T10:28:42.999Z,27.00
2022-11-23T10:30:54.487Z,27.00
2022-11-23T10:33:04.376Z,27.00
2022-11-23T10:35:16.882Z,27.00
2022-11-23T10:37:25.087Z,27.00
2022-11-23T10:39:34.371Z,27.00
2022-11-23T10:41:41.090Z,26.90
2022-11-23T10:43:53.853Z,26.90
2022-11-23T10:46:29.359Z,26.90
2022-11-23T10:48:39.600Z,26.90
2022-11-23T10:50:46.938Z,26.90
2022-11-23T10:52:59.083Z,26.90
2022-11-23T10:55:10.158Z,26.90
2022-11-23T10:57:33.776Z,26.90
2022-11-23T10:59:41.876Z,26.80
2022-11-23T11:02:04.316Z,26.80
2022-11-23T11:04:28.292Z,26.80
2022-11-23T11:06:37.213Z,26.80
2022-11-23T11:08:53.867Z,26.80
2022-11-23T11:11:07.963Z,26.80
2022-11-23T11:13:30.862Z,26.80
2022-11-23T11:15:47.191Z,26.90
2022-11-23T11:18:00.380Z,26.90
2022-11-23T11:20:27.940Z,26.90
2022-11-23T11:22:41.067Z,26.90
2022-11-23T11:24:52.440Z,26.80
2022-11-23T11:27:05.458Z,26.80
2022-11-23T11:29:38.284Z,26.80
2022-11-23T11:31:57.146Z,26.70
2022-11-23T11:34:13.292Z,26.70
2022-11-23T11:36:21.341Z,26.70
2022-11-23T11:38:33.643Z,26.70
2022-11-23T11:40:43.437Z,26.70
2022-11-23T11:42:57.890Z,26.70
2022-11-23T11:45:06.816Z,26.70
2022-11-23T11:47:31.042Z,26.80
2022-11-23T11:49:43.701Z,26.80
2022-11-23T11:51:53.257Z,26.80
2022-11-23T11:54:06.616Z,26.70
2022-11-23T11:56:22.615Z,26.70
2022-11-23T11:58:31.285Z,26.70
2022-11-23T12:00:44.901Z,26.70
2022-11-23T12:03:04.766Z,26.70
2022-11-23T12:05:20.886Z,26.70
2022-11-23T12:07:34.839Z,26.70
2022-11-23T12:09:45.887Z,26.70
2022-11-23T12:11:53.067Z,26.70
2022-11-23T12:14:05.419Z,26.80
2022-11-23T12:16:21.510Z,26.80
2022-11-23T12:18:59.667Z,26.80
2022-11-23T12:21:08.614Z,26.70
2022-11-23T12:23:29.084Z,26.70
2022-11-23T12:25:39.996Z,26.70
2022-11-23T12:28:01.213Z,26.60
2022-11-23T12:30:26.724Z,26.40
2022-11-23T12:32:47.116Z,26.30
2022-11-23T12:35:28.603Z,26.20
2022-11-23T12:37:48.379Z,26.20
2022-11-23T12:40:26.076Z,26.20
2022-11-23T12:42:43.650Z,26.10
2022-11-23T12:45:18.227Z,25.90
2022-11-23T12:47:42.404Z,25.90
2022-11-23T12:49:54.604Z,25.90
2022-11-23T12:52:12.949Z,25.80
2022-11-23T12:54:38.357Z,25.80
2022-11-23T12:57:09.147Z,25.80
2022-11-23T12:59:17.552Z,25.70
2022-11-23T13:01:31.088Z,25.70
2022-11-23T13:04:12.364Z,25.60
2022-11-23T13:07:12.669Z,25.70
2022-11-23T13:09:48.854Z,25.60
2022-11-23T13:12:16.311Z,25.60
2022-11-23T13:14:33.629Z,25.60
2022-11-23T13:16:58.691Z,25.50
2022-11-23T13:19:21.068Z,25.40
2022-11-23T13:21:37.417Z,25.40
2022-11-23T13:23:44.850Z,25.40
2022-11-23T13:26:19.017Z,25.40
2022-11-23T13:28:35.140Z,25.40
2022-11-23T13:31:13.242Z,25.50
2022-11-23T13:33:34.283Z,25.50
2022-11-23T13:36:09.538Z,25.50
2022-11-23T13:38:31.746Z,25.50
2022-11-23T13:40:39.748Z,25.50
2022-11-23T13:42:46.772Z,25.40
2022-11-23T13:45:35.010Z,25.30
2022-11-23T13:47:43.840Z,25.30
2022-11-23T13:49:52.299Z,25.20
2022-11-23T13:52:09.874Z,25.20
2022-11-23T13:54:27.501Z,25.20
2022-11-23T13:56:37.550Z,25.20
2022-11-23T13:58:55.022Z,25.20
2022-11-23T14:01:03.103Z,25.20
2022-11-23T14:03:45.838Z,25.10
2022-11-23T14:06:04.340Z,25.10
2022-11-23T14:08:16.383Z,25.10
2022-11-23T14:10:27.302Z,25.10
2022-11-23T14:12:39.556Z,25.00
2022-11-23T14:15:01.795Z,25.00
2022-11-23T14:17:40.458Z,25.00
2022-11-23T14:20:14.774Z,24.90
2022-11-23T14:22:31.789Z,24.90
2022-11-23T14:25:15.218Z,24.80
2022-11-23T14:27:49.843Z,24.80
2022-11-23T14:30:25.901Z,24.70
2022-11-23T14:32:45.934Z,24.70
2022-11-23T14:35:04.077Z,24.70
2022-11-23T14:37:20.298Z,24.70
2022-11-23T14:40:11.736Z,24.80
2022-11-23T14:42:21.989Z,24.70
2022-11-23T14:44:38.143Z,24.70
2022-11-23T14:47:03.434Z,24.70
2022-11-23T14:49:15.586Z,24.70
2022-11-23T14:51:27.375Z,24.60
2022-11-23T14:53:38.085Z,24.60
2022-11-23T14:55:50.392Z,24.60
2022-11-23T14:58:01.208Z,24.60
2022-11-23T15:00:25.849Z,24.60
2022-11-23T15:02:37.895Z,24.60
2022-11-23T15:05:02.555Z,24.70
2022-11-23T15:07:14.889Z,24.60
2022-11-23T15:09:33.950Z,24.70
2022-11-23T15:11:41.489Z,24.70
2022-11-23T15:13:50.361Z,24.70
2022-11-23T15:16:00.203Z,24.70
2022-11-23T15:18:07.796Z,24.80
2022-11-23T15:20:15.541Z,24.80
2022-11-23T15:22:22.876Z,24.80
2022-11-23T15:24:30.828Z,24.80
2022-11-23T15:26:53.690Z,24.80
2022-11-23T15:29:00.688Z,24.80
2022-11-23T15:31:29.210Z,24.80
2022-11-23T15:33:35.956Z,24.80
2022-11-23T15:35:43.806Z,24.80
2022-11-23T15:37:51.647Z,24.80
2022-11-23T15:39:59.881Z,24.80
2022-11-23T15:42:06.832Z,24.80
2022-11-23T15:44:24.919Z,24.80
2022-11-23T15:46:39.012Z,24.80
2022-11-23T15:48:45.989Z,24.70
2022-11-23T15:50:56.144Z,24.70
2022-11-23T15:53:05.221Z,24.60
2022-11-23T15:55:17.926Z,24.60
2022-11-23T15:57:29.195Z,24.60
2022-11-23T15:59:41.917Z,24.60
2022-11-23T16:01:50.945Z,24.60
2022-11-23T16:04:03.043Z,24.60
2022-11-23T16:06:22.714Z,24.70
2022-11-23T16:08:29.586Z,24.60
2022-11-23T16:10:37.690Z,24.60
2022-11-23T16:12:51.684Z,24.50
2022-11-23T16:15:00.199Z,24.60
2022-11-23T16:17:20.087Z,24.50
2022-11-23T16:19:31.704Z,24.60
2022-11-23T16:21:38.636Z,24.60
2022-11-23T16:23:49.400Z,24.50
2022-11-23T16:26:02.113Z,24.50
2022-11-23T16:28:18.358Z,24.50
2022-11-23T16:30:27.744Z,24.50
2022-11-23T16:32:36.612Z,24.60
2022-11-23T16:34:45.993Z,24.60
2022-11-23T16:36:54.045Z,24.60
2022-11-23T16:39:05.410Z,24.60
2022-11-23T16:41:12.811Z,24.60
2022-11-23T16:43:21.125Z,24.60
2022-11-23T16:45:28.610Z,24.60
2022-11-23T16:47:38.199Z,24.50
2022-11-23T16:49:45.228Z,24.50
2022-11-23T16:51:56.719Z,24.50
2022-11-23T16:54:13.810Z,24.50
2022-11-23T16:56:23.615Z,24.50
2022-11-23T16:58:34.946Z,24.50
2022-11-23T17:00:42.436Z,24.40
2022-11-23T17:02:51.246Z,24.40
2022-11-23T17:04:58.128Z,24.40
2022-11-23T17:07:05.054Z,24.30
2022-11-23T17:09:12.631Z,24.30
2022-11-23T17:11:21.979Z,24.30
2022-11-23T17:13:32.083Z,24.30
2022-11-23T17:15:38.951Z,24.30
2022-11-23T17:17:46.184Z,24.30
2022-11-23T17:19:56.600Z,24.30
2022-11-23T17:22:07.050Z,24.30
2022-11-23T17:24:14.589Z,24.30
2022-11-23T17:26:34.419Z,24.30
2022-11-23T17:28:42.012Z,24.30
2022-11-23T17:30:49.219Z,24.20
2022-11-23T17:32:56.064Z,24.30
2022-11-23T17:35:04.884Z,24.30
2022-11-23T17:37:19.800Z,24.30
2022-11-23T17:39:29.386Z,24.30
2022-11-23T17:41:36.414Z,24.30
2022-11-23T17:43:43.594Z,24.30
2022-11-23T17:45:50.382Z,24.30
2022-11-23T17:48:01.839Z,24.40
2022-11-23T17:50:18.511Z,24.30
2022-11-23T17:52:25.941Z,24.30
2022-11-23T17:54:32.713Z,24.30
2022-11-23T17:56:39.741Z,24.40
2022-11-23T17:58:46.513Z,24.40
2022-11-23T18:00:53.646Z,24.40
2022-11-23T18:03:00.261Z,24.40
2022-11-23T18:05:07.647Z,24.50
2022-11-23T18:07:17.543Z,24.50
2022-11-23T18:09:24.581Z,24.60
2022-11-23T18:11:31.704Z,24.60
2022-11-23T18:13:38.789Z,24.60
2022-11-23T18:15:45.564Z,24.60
2022-11-23T18:17:52.944Z,24.60
2022-11-23T18:19:59.663Z,24.60
2022-11-23T18:22:06.641Z,24.60
2022-11-23T18:24:15.611Z,24.60
2022-11-23T18:26:24.227Z,24.50
2022-11-23T18:28:31.460Z,24.50
2022-11-23T18:30:38.380Z,24.50
2022-11-23T18:32:45.159Z,24.50
2022-11-23T18:34:52.441Z,24.40
2022-11-23T18:36:59.470Z,24.40
2022-11-23T18:39:07.471Z,24.40
2022-11-23T18:41:17.367Z,24.40
2022-11-23T18:43:24.649Z,24.40
2022-11-23T18:45:31.727Z,24.40
2022-11-23T18:47:38.962Z,24.40
2022-11-23T18:49:45.836Z,24.50
2022-11-23T18:51:53.016Z,24.40
2022-11-23T18:53:59.686Z,24.50
2022-11-23T18:56:07.176Z,24.50
2022-11-23T18:58:15.689Z,24.50
2022-11-23T19:00:23.696Z,24.50
2022-11-23T19:02:30.563Z,24.50
2022-11-23T19:04:38.466Z,24.40
2022-11-23T19:06:45.594Z,24.40
2022-11-23T19:08:54.619Z,24.50
2022-11-23T19:11:09.326Z,24.50
2022-11-23T19:13:18.402Z,24.40
2022-11-23T19:15:25.541Z,24.40
2022-11-23T19:17:32.708Z,24.40
2022-11-23T19:19:40.260Z,24.50
2022-11-23T19:21:47.997Z,24.50
2022-11-23T19:23:56.002Z,24.50
2022-11-23T19:26:05.484Z,24.50
2022-11-23T19:28:12.307Z,24.50
2022-11-23T19:30:21.588Z,24.40
2022-11-23T19:32:28.360Z,24.40
2022-11-23T19:34:36.004Z,24.40
2022-11-23T19:36:42.827Z,24.40
2022-11-23T19:38:50.930Z,24.40
2022-11-23T19:40:58.521Z,24.40
2022-11-23T19:43:09.541Z,24.30
2022-11-23T19:45:16.421Z,24.40
2022-11-23T19:47:25.237Z,24.40
2022-11-23T19:49:33.953Z,24.40
2022-11-23T19:51:41.194Z,24.40
2022-11-23T19:53:50.058Z,24.40
2022-11-23T19:56:03.844Z,24.40
2022-11-23T19:58:10.671Z,24.40
2022-11-23T20:00:19.079Z,24.50
2022-11-23T20:02:30.970Z,24.40
2022-11-23T20:04:38.067Z,24.40
2022-11-23T20:06:45.210Z,24.40
2022-11-23T20:08:56.767Z,24.40
2022-11-23T20:11:10.195Z,24.40
2022-11-23T20:13:17.886Z,24.50
2022-11-23T20:15:25.018Z,24.50
2022-11-23T20:17:34.402Z,24.50
2022-11-23T20:19:41.122Z,24.50
2022-11-23T20:21:48.201Z,24.50
2022-11-23T20:24:04.408Z,24.50
2022-11-23T20:26:15.468Z,24.50
2022-11-23T20:28:22.190Z,24.50
2022-11-23T20:30:29.369Z,24.60
2022-11-23T20:32:37.985Z,24.60
2022-11-23T20:34:44.960Z,24.50
2022-11-23T20:36:51.680Z,24.50
2022-11-23T20:38:58.864Z,24.50
2022-11-23T20:41:15.618Z,24.50
2022-11-23T20:43:22.596Z,24.60
2022-11-23T20:45:29.675Z,24.60
2022-11-23T20:47:38.721Z,24.60
2022-11-23T20:49:45.524Z,24.60
2022-11-23T20:51:52.402Z,24.70
2022-11-23T20:54:00.654Z,24.70
2022-11-23T20:56:09.372Z,24.70
2022-11-23T20:58:16.092Z,24.70
2022-11-23T21:00:24.555Z,24.70
2022-11-23T21:02:31.466Z,24.70
2022-11-23T21:04:40.558Z,24.60
2022-11-23T21:06:47.482Z,24.70
2022-11-23T21:08:55.129Z,24.60
2022-11-23T21:11:26.167Z,24.60
2022-11-23T21:13:50.074Z,24.60
2022-11-23T21:15:57.027Z,24.60
2022-11-23T21:18:04.452Z,24.50
2022-11-23T21:20:13.477Z,24.50
2022-11-23T21:22:21.017Z,24.50
2022-11-23T21:24:28.300Z,24.50
2022-11-23T21:26:35.431Z,24.50
2022-11-23T21:28:42.459Z,24.50
2022-11-23T21:30:49.386Z,24.50
2022-11-23T21:32:56.164Z,24.50
2022-11-23T21:35:03.655Z,24.50
2022-11-23T21:37:14.822Z,24.50
2022-11-23T21:39:22.923Z,24.40
2022-11-23T21:41:29.799Z,24.50
2022-11-23T21:43:37.456Z,24.50
2022-11-23T21:45:44.827Z,24.50
2022-11-23T21:47:51.805Z,24.50
2022-11-23T21:49:58.472Z,24.50
2022-11-23T21:52:05.760Z,24.50
2022-11-23T21:54:16.704Z,24.50
2022-11-23T21:56:24.063Z,24.50
2022-11-23T21:58:30.990Z,24.50
2022-11-23T22:00:38.170Z,24.50
2022-11-23T22:02:45.199Z,24.50
2022-11-23T22:04:52.996Z,24.50
2022-11-23T22:06:59.926Z,24.50
2022-11-23T22:09:08.331Z,24.50
2022-11-23T22:11:18.942Z,24.50
2022-11-23T22:13:26.948Z,24.50
2022-11-23T22:15:33.819Z,24.50
2022-11-23T22:17:41.051Z,24.50
2022-11-23T22:19:48.028Z,24.50
2022-11-23T22:21:55.208Z,24.50
2022-11-23T22:24:03.008Z,24.50
2022-11-23T22:26:11.620Z,24.50
2022-11-23T22:28:20.748Z,24.50
2022-11-23T22:30:28.920Z,24.50
2022-11-23T22:32:35.986Z,24.50
2022-11-23T22:34:44.291Z,24.50
2022-11-23T22:36:53.967Z,24.50
2022-11-23T22:39:02.908Z,24.50
2022-11-23T22:41:11.572Z,24.50
2022-11-23T22:43:20.646Z,24.50
2022-11-23T22:45:27.722Z,24.50
2022-11-23T22:47:35.776Z,24.50
2022-11-23T22:49:42.805Z,24.50
2022-11-23T22:51:50.040Z,24.50
2022-11-23T22:53:58.244Z,24.50
2022-11-23T22:56:07.011Z,24.50
2022-11-23T22:58:14.349Z,24.40
2022-11-23T23:00:23.529Z,24.40
2022-11-23T23:02:32.469Z,24.40
2022-11-23T23:04:39.477Z,24.40
2022-11-23T23:06:47.015Z,24.40
2022-11-23T23:08:57.579Z,24.40
2022-11-23T23:11:08.599Z,24.40
2022-11-23T23:13:15.677Z,24.40
2022-11-23T23:15:25.061Z,24.40
2022-11-23T23:17:32.347Z,24.50
2022-11-23T23:19:39.373Z,24.50
2022-11-23T23:21:47.118Z,24.50
2022-11-23T23:23:55.220Z,24.50
2022-11-23T23:26:02.303Z,24.50
2022-11-23T23:28:09.278Z,24.50
2022-11-23T23:30:17.125Z,24.60
2022-11-23T23:32:25.637Z,24.60
2022-11-23T23:34:33.199Z,24.50
2022-11-23T23:36:40.256Z,24.60
2022-11-23T23:38:47.591Z,24.50
2022-11-23T23:40:57.947Z,24.60
2022-11-23T23:43:04.925Z,24.50
2022-11-23T23:45:13.131Z,24.50
2022-11-23T23:47:20.158Z,24.50
2022-11-23T23:49:32.464Z,24.50
2022-11-23T23:51:39.284Z,24.50
2022-11-23T23:53:46.777Z,24.50
2022-11-23T23:56:04.192Z,24.50
2022-11-23T23:58:11.581Z,24.50
